Time;durP1;ratioP1;P1;durP2;ratioP2;P2;SDS_P1;SDS_P2;PMS_P1;PMS_P2;Temp;Humidity;BMP_temperature;BMP_pressure;BME280_temperature;BME280_humidity;BME280_pressure;Samples;Min_cycle;Max_cycle;Signal;HPM_P1;HPM_P2
2022/08/05 00:01:23;;;;;;;5.63;4.03;;;27.10;94.30;;;;;;5005136;28;20522;-69
2022/08/05 00:03:49;;;;;;;4.60;3.80;;;27.00;94.60;;;;;;5005159;28;20195;-68
2022/08/05 00:06:16;;;;;;;7.87;4.03;;;26.90;94.70;;;;;;5004969;28;20595;-67
2022/08/05 00:08:43;;;;;;;4.50;4.10;;;26.80;94.70;;;;;;5005418;28;20486;-68
2022/08/05 00:11:13;;;;;;;4.50;4.10;;;26.90;94.70;;;;;;5005933;28;20539;-68
2022/08/05 00:13:41;;;;;;;4.53;4.13;;;26.90;94.50;;;;;;5005630;28;20438;-68
2022/08/05 00:16:09;;;;;;;3.80;3.50;;;27.20;94.00;;;;;;5004174;28;20519;-67
2022/08/05 00:18:35;;;;;;;4.10;3.80;;;27.40;94.00;;;;;;5004558;28;20510;-68
2022/08/05 00:21:01;;;;;;;4.00;3.70;;;27.50;93.50;;;;;;5005279;28;20971;-67
2022/08/05 00:23:27;;;;;;;4.90;4.50;;;27.50;94.00;;;;;;5004901;28;20506;-68
2022/08/05 00:25:52;;;;;;;5.90;4.23;;;27.30;94.80;;;;;;5004963;28;20204;-69
2022/08/05 00:28:18;;;;;;;4.30;4.00;;;27.10;95.30;;;;;;5004784;28;20188;-68
2022/08/05 00:30:44;;;;;;;4.37;3.97;;;27.10;95.50;;;;;;5005425;28;20184;-68
2022/08/05 00:33:10;;;;;;;4.17;3.73;;;27.00;95.70;;;;;;5004578;28;20186;-68
2022/08/05 00:35:35;;;;;;;3.83;3.47;;;26.90;96.00;;;;;;5004728;28;20247;-67
2022/08/05 00:38:01;;;;;;;4.27;3.90;;;27.10;95.90;;;;;;5004809;28;20411;-68
2022/08/05 00:40:28;;;;;;;4.33;4.03;;;27.10;95.20;;;;;;5004673;28;20180;-69
2022/08/05 00:42:54;;;;;;;3.80;3.50;;;27.10;95.50;;;;;;5004853;28;20184;-70
2022/08/05 00:45:20;;;;;;;4.43;4.07;;;27.20;95.60;;;;;;5004259;28;20911;-68
2022/08/05 00:47:45;;;;;;;4.67;3.90;;;27.20;95.40;;;;;;5003590;28;20957;-67
2022/08/05 00:50:11;;;;;;;4.73;4.30;;;27.00;95.30;;;;;;5004340;28;20196;-68
2022/08/05 00:52:37;;;;;;;5.43;3.90;;;26.90;95.70;;;;;;5004548;28;20176;-70
2022/08/05 00:55:03;;;;;;;4.30;3.90;;;26.90;95.80;;;;;;5004096;28;20172;-69
2022/08/05 00:57:29;;;;;;;4.10;3.80;;;26.90;96.10;;;;;;5003940;28;20196;-68
2022/08/05 00:59:55;;;;;;;4.47;3.90;;;26.80;96.30;;;;;;5004627;28;20433;-67
2022/08/05 01:02:20;;;;;;;6.10;4.43;;;26.70;96.40;;;;;;5004033;28;20240;-67
2022/08/05 01:04:46;;;;;;;4.33;3.90;;;26.40;96.00;;;;;;5004096;28;20259;-68
2022/08/05 01:07:11;;;;;;;5.43;4.03;;;26.40;95.50;;;;;;5004338;28;20210;-67
2022/08/05 01:09:37;;;;;;;7.90;3.83;;;26.60;93.30;;;;;;5004337;28;20250;-67
2022/08/05 01:12:07;;;;;;;3.80;3.47;;;26.90;91.40;;;;;;5004508;28;20183;-69
2022/08/05 01:14:47;;;;;;;4.47;4.07;;;27.00;90.50;;;;;;5004121;28;20226;-68
2022/08/05 01:17:39;;;;;;;4.90;3.93;;;27.20;90.10;;;;;;5003551;28;21045;-68
2022/08/05 01:20:33;;;;;;;3.37;3.17;;;27.40;89.30;;;;;;5004545;28;20421;-68
2022/08/05 01:23:01;;;;;;;5.00;3.33;;;27.30;88.40;;;;;;5003978;28;20522;-66
2022/08/05 01:25:59;;;;;;;4.27;3.27;;;27.20;88.60;;;;;;5004007;28;20434;-70
2022/08/05 01:28:29;;;;;;;5.80;3.37;;;27.20;89.50;;;;;;5001173;28;20798;-69
2022/08/05 01:31:14;;;;;;;6.30;4.17;;;27.20;89.90;;;;;;5004049;28;20568;-71
2022/08/05 01:33:55;;;;;;;4.80;2.90;;;27.40;89.90;;;;;;5003796;28;20406;-69
2022/08/05 01:36:25;;;;;;;3.63;3.33;;;27.40;90.10;;;;;;5004099;28;20481;-69
2022/08/05 01:38:51;;;;;;;4.23;3.30;;;27.50;89.90;;;;;;5004340;28;20419;-69
2022/08/05 01:41:21;;;;;;;4.70;3.43;;;27.50;90.10;;;;;;5004198;28;20429;-70
2022/08/05 01:43:48;;;;;;;8.80;3.10;;;27.30;90.50;;;;;;5004334;28;20414;-70
2022/08/05 01:46:15;;;;;;;4.43;3.23;;;27.00;91.20;;;;;;5003958;28;20478;-68
2022/08/05 01:48:42;;;;;;;4.33;2.90;;;27.10;91.30;;;;;;5006602;28;20930;-70
2022/08/05 01:51:09;;;;;;;8.30;3.10;;;27.10;91.40;;;;;;5008006;28;20873;-69
2022/08/05 01:53:37;;;;;;;5.30;3.33;;;27.00;91.70;;;;;;5007637;28;20899;-69
2022/08/05 01:56:04;;;;;;;4.60;3.30;;;27.00;91.90;;;;;;5007721;28;20441;-68
2022/08/05 01:58:32;;;;;;;4.27;3.30;;;27.00;92.10;;;;;;5007770;28;20427;-68
2022/08/05 02:01:00;;;;;;;4.33;3.27;;;26.80;92.60;;;;;;5007509;28;20415;-69
2022/08/05 02:03:32;;;;;;;5.13;3.53;;;27.00;92.60;;;;;;5007358;28;20569;-68
2022/08/05 02:06:01;;;;;;;7.00;3.10;;;26.80;92.80;;;;;;5007465;28;20438;-69
2022/08/05 02:08:27;;;;;;;5.00;3.17;;;26.80;93.00;;;;;;5007293;28;20942;-67
2022/08/05 02:10:58;;;;;;;4.80;2.87;;;26.70;93.30;;;;;;5007773;28;20419;-68
2022/08/05 02:13:34;;;;;;;5.73;3.10;;;26.70;93.50;;;;;;5007530;28;20234;-69
2022/08/05 02:16:28;;;;;;;8.03;3.47;;;26.70;93.40;;;;;;5007235;28;20962;-68
2022/08/05 02:19:30;;;;;;;5.30;3.27;;;26.70;93.50;;;;;;4998316;28;20466;-68
2022/08/05 02:22:16;;;;;;;4.20;2.80;;;26.60;93.80;;;;;;5007703;28;20421;-68
2022/08/05 02:24:48;;;;;;;4.63;3.40;;;26.60;94.10;;;;;;5007369;28;20418;-68
2022/08/05 02:27:15;;;;;;;3.60;2.93;;;26.70;93.90;;;;;;5007596;28;20897;-69
2022/08/05 02:29:43;;;;;;;6.00;3.47;;;26.60;94.10;;;;;;5007322;28;21254;-67
2022/08/05 02:32:11;;;;;;;4.70;3.23;;;26.60;94.30;;;;;;5007337;28;20418;-69
2022/08/05 02:34:37;;;;;;;4.00;3.10;;;26.70;94.20;;;;;;5006685;28;20420;-69
2022/08/05 02:37:06;;;;;;;6.30;3.20;;;26.70;94.10;;;;;;5006744;28;20504;-69
2022/08/05 02:39:37;;;;;;;4.40;3.27;;;26.70;94.20;;;;;;5006772;28;20172;-67
2022/08/05 02:42:04;;;;;;;6.23;3.40;;;26.80;94.20;;;;;;5006729;28;20422;-69
2022/08/05 02:44:32;;;;;;;9.60;3.43;;;26.70;94.30;;;;;;5006844;28;20446;-68
2022/08/05 02:46:59;;;;;;;5.67;3.70;;;26.70;94.40;;;;;;5006803;28;20430;-70
2022/08/05 02:49:29;;;;;;;4.30;3.10;;;26.80;94.30;;;;;;5005687;28;20461;-68
2022/08/05 02:51:56;;;;;;;6.20;3.33;;;26.90;94.20;;;;;;5006950;28;20534;-67
2022/08/05 02:54:23;;;;;;;3.30;3.00;;;27.00;94.10;;;;;;5005979;28;20452;-69
2022/08/05 02:56:50;;;;;;;7.50;3.43;;;27.10;94.10;;;;;;5007054;28;20446;-67
2022/08/05 02:59:17;;;;;;;8.13;3.43;;;27.10;94.10;;;;;;5007105;28;20418;-67
2022/08/05 03:01:44;;;;;;;3.70;3.40;;;27.10;94.10;;;;;;5006582;28;20716;-68
2022/08/05 03:04:12;;;;;;;5.80;3.13;;;27.10;94.30;;;;;;5006450;28;20427;-69
2022/08/05 03:06:40;;;;;;;4.87;2.80;;;27.10;94.60;;;;;;5007059;28;20812;-68
2022/08/05 03:09:06;;;;;;;5.67;3.77;;;27.00;94.80;;;;;;5005927;28;20482;-70
2022/08/05 03:11:32;;;;;;;5.83;3.33;;;27.00;95.00;;;;;;5006168;28;20911;-68
2022/08/05 03:13:58;;;;;;;6.43;3.83;;;26.70;95.30;;;;;;5006461;28;20418;-68
2022/08/05 03:16:23;;;;;;;6.20;3.40;;;26.40;95.80;;;;;;5006139;28;20735;-71
2022/08/05 03:18:49;;;;;;;5.07;3.30;;;26.50;96.10;;;;;;5006150;28;20203;-68
2022/08/05 03:21:15;;;;;;;4.40;3.57;;;26.50;96.00;;;;;;5006228;28;20299;-68
2022/08/05 03:23:42;;;;;;;4.47;3.00;;;26.70;95.90;;;;;;5006275;28;20863;-69
2022/08/05 03:26:09;;;;;;;8.33;4.00;;;26.40;95.80;;;;;;5006062;28;20200;-68
2022/08/05 03:28:35;;;;;;;7.27;3.33;;;26.40;96.10;;;;;;5005666;28;20830;-69
2022/08/05 03:31:02;;;;;;;5.60;3.10;;;26.50;96.30;;;;;;5006333;28;20422;-70
2022/08/05 03:33:28;;;;;;;5.00;3.20;;;26.50;96.20;;;;;;5004476;28;20423;-66
2022/08/05 03:35:58;;;;;;;5.03;3.00;;;26.40;96.50;;;;;;5005641;28;20430;-70
2022/08/05 03:38:25;;;;;;;3.60;2.83;;;26.30;96.90;;;;;;5005993;28;20411;-68
2022/08/05 03:40:52;;;;;;;5.00;3.30;;;26.20;97.20;;;;;;5005849;28;20415;-67
2022/08/05 03:43:19;;;;;;;6.03;3.90;;;26.10;97.60;;;;;;5005523;28;20421;-67
2022/08/05 03:45:45;;;;;;;3.80;3.37;;;25.90;97.90;;;;;;5006022;28;20790;-68
2022/08/05 03:48:10;;;;;;;4.40;3.70;;;25.90;98.20;;;;;;5004216;28;20430;-67
2022/08/05 03:51:05;;;;;;;7.00;3.60;;;25.80;98.80;;;;;;5005392;28;20581;-67
2022/08/05 03:53:30;;;;;;;4.07;3.40;;;25.50;99.40;;;;;;5005668;28;20228;-68
2022/08/05 03:56:28;;;;;;;6.30;4.33;;;25.30;99.90;;;;;;5005369;28;21281;-68
2022/08/05 03:58:58;;;;;;;9.93;3.90;;;25.20;99.90;;;;;;4997240;28;20196;-68
2022/08/05 04:01:25;;;;;;;5.30;3.00;;;25.00;99.90;;;;;;5005167;28;20403;-67
2022/08/05 04:03:52;;;;;;;7.17;3.70;;;24.90;99.90;;;;;;5004955;28;20506;-68
2022/08/05 04:06:18;;;;;;;5.93;3.80;;;24.80;99.90;;;;;;5005351;28;20867;-68
2022/08/05 04:08:45;;;;;;;7.73;4.03;;;24.80;99.90;;;;;;5005033;28;21308;-67
2022/08/05 04:11:10;;;;;;;4.83;3.27;;;24.90;99.90;;;;;;5004732;28;20418;-68
2022/08/05 04:13:40;;;;;;;7.00;4.20;;;24.90;99.90;;;;;;5004984;28;20419;-67
2022/08/05 04:16:08;;;;;;;7.47;4.03;;;25.00;99.90;;;;;;5004874;28;20653;-67
2022/08/05 04:18:35;;;;;;;5.50;3.87;;;25.00;99.90;;;;;;5004501;28;20444;-67
2022/08/05 04:21:02;;;;;;;4.83;4.00;;;24.90;99.90;;;;;;5004949;28;20519;-68
2022/08/05 04:23:28;;;;;;;5.53;3.37;;;24.90;99.90;;;;;;5005051;28;20406;-68
2022/08/05 04:25:54;;;;;;;5.63;3.90;;;24.90;99.90;;;;;;5005141;28;21289;-68
2022/08/05 04:28:20;;;;;;;4.23;3.83;;;24.90;99.90;;;;;;5004923;28;20176;-67
2022/08/05 04:30:47;;;;;;;4.83;3.73;;;24.80;99.90;;;;;;5005310;28;20633;-66
2022/08/05 04:33:13;;;;;;;5.40;3.70;;;24.80;99.90;;;;;;5003121;28;20423;-68
2022/08/05 04:35:40;;;;;;;5.80;3.90;;;24.90;99.90;;;;;;5005104;28;20445;-68
2022/08/05 04:38:06;;;;;;;4.93;3.70;;;25.10;99.90;;;;;;5004795;28;20423;-67
2022/08/05 04:40:36;;;;;;;4.13;3.50;;;25.10;99.90;;;;;;5004712;28;20423;-69
2022/08/05 04:43:03;;;;;;;6.37;4.20;;;25.10;99.90;;;;;;5004855;28;20168;-67
2022/08/05 04:45:28;;;;;;;7.13;3.60;;;25.10;99.90;;;;;;5004185;28;20969;-66
2022/08/05 04:48:01;;;;;;;3.67;3.37;;;25.10;99.90;;;;;;5003919;28;20502;-68
2022/08/05 04:50:27;;;;;;;7.80;4.20;;;25.20;99.90;;;;;;5004218;28;20195;-68
2022/08/05 04:52:52;;;;;;;6.03;3.73;;;25.10;99.90;;;;;;5006200;28;20468;-68
2022/08/05 04:55:18;;;;;;;4.33;3.97;;;25.20;99.90;;;;;;5004604;28;20553;-70
2022/08/05 04:57:45;;;;;;;3.87;3.43;;;25.30;99.90;;;;;;5004931;28;20187;-68
2022/08/05 05:00:11;;;;;;;11.17;4.40;;;25.40;99.90;;;;;;5004552;28;20263;-67
2022/08/05 05:02:37;;;;;;;5.90;4.47;;;25.30;99.90;;;;;;5004107;28;20790;-68
2022/08/05 05:05:03;;;;;;;6.13;3.70;;;25.20;99.90;;;;;;5003922;28;20425;-69
2022/08/05 05:07:30;;;;;;;6.70;4.20;;;25.10;99.90;;;;;;5004320;28;20239;-67
2022/08/05 05:09:55;;;;;;;5.90;3.90;;;25.20;99.90;;;;;;5004495;28;20454;-67
2022/08/05 05:12:21;;;;;;;4.33;3.90;;;25.30;99.90;;;;;;5004071;28;20938;-67
2022/08/05 05:14:47;;;;;;;6.50;4.40;;;25.40;99.90;;;;;;5004583;28;20229;-69
2022/08/05 05:17:12;;;;;;;4.73;3.87;;;25.30;99.90;;;;;;5003720;28;20211;-67
2022/08/05 05:19:39;;;;;;;9.70;4.30;;;25.40;99.90;;;;;;5003846;28;20187;-67
2022/08/05 05:22:05;;;;;;;4.30;3.30;;;25.40;99.90;;;;;;5003677;28;20188;-67
2022/08/05 05:24:31;;;;;;;6.63;4.00;;;25.50;99.90;;;;;;4986127;28;20442;-69
2022/08/05 05:26:57;;;;;;;5.80;4.50;;;25.70;99.90;;;;;;5004285;28;20473;-67
2022/08/05 05:29:23;;;;;;;5.00;4.00;;;25.70;99.90;;;;;;5004018;28;20337;-68
2022/08/05 05:31:48;;;;;;;7.03;4.20;;;25.60;99.90;;;;;;5004012;28;20547;-68
2022/08/05 05:34:14;;;;;;;8.27;4.87;;;25.80;99.90;;;;;;5003331;28;20184;-68
2022/08/05 05:36:39;;;;;;;5.83;3.80;;;25.70;99.90;;;;;;5003972;28;20206;-67
2022/08/05 05:39:05;;;;;;;10.27;5.00;;;25.80;99.90;;;;;;5003753;28;20553;-68
2022/08/05 05:41:31;;;;;;;7.50;4.40;;;25.90;99.90;;;;;;5003919;28;20263;-69
2022/08/05 05:43:57;;;;;;;5.03;4.53;;;25.90;99.90;;;;;;5004098;28;20191;-69
2022/08/05 05:46:23;;;;;;;9.93;5.70;;;26.10;99.90;;;;;;5003602;28;20971;-68
2022/08/05 05:48:48;;;;;;;7.20;4.73;;;26.00;99.90;;;;;;5002431;28;20497;-69
2022/08/05 05:51:24;;;;;;;8.77;4.80;;;26.20;99.90;;;;;;5004059;28;20191;-69
2022/08/05 05:53:51;;;;;;;10.70;5.70;;;26.20;99.90;;;;;;5003892;28;20609;-67
2022/08/05 05:56:19;;;;;;;5.47;4.93;;;26.00;99.90;;;;;;5003589;28;20422;-67
2022/08/05 05:58:46;;;;;;;6.10;5.20;;;26.10;99.90;;;;;;4985765;28;20514;-70
2022/08/05 06:01:13;;;;;;;12.17;4.97;;;26.10;99.90;;;;;;5003689;28;20427;-70
2022/08/05 06:03:42;;;;;;;8.20;5.90;;;25.80;99.90;;;;;;5003016;28;20450;-68
2022/08/05 06:06:07;;;;;;;6.10;5.10;;;25.90;99.90;;;;;;5003279;28;20426;-67
2022/08/05 06:08:33;;;;;;;7.23;4.57;;;26.00;99.90;;;;;;5003694;28;20789;-68
2022/08/05 06:10:59;;;;;;;7.63;4.73;;;25.90;99.90;;;;;;5003780;28;20663;-68
2022/08/05 06:13:25;;;;;;;7.03;4.33;;;25.90;99.90;;;;;;5003567;28;20179;-66
2022/08/05 06:15:51;;;;;;;6.50;4.60;;;26.10;99.90;;;;;;5003462;28;20454;-68
2022/08/05 06:18:16;;;;;;;4.93;4.10;;;26.00;99.90;;;;;;5003314;28;20188;-67
2022/08/05 06:20:42;;;;;;;8.80;4.80;;;25.90;99.90;;;;;;5003372;28;20211;-67
2022/08/05 06:23:07;;;;;;;9.03;4.80;;;25.90;99.90;;;;;;5003323;28;20196;-66
2022/08/05 06:25:33;;;;;;;6.53;4.40;;;25.90;99.90;;;;;;5002641;28;20195;-68
2022/08/05 06:27:58;;;;;;;7.23;4.53;;;26.00;99.90;;;;;;5003210;28;20199;-67
2022/08/05 06:30:25;;;;;;;5.90;4.33;;;26.10;99.90;;;;;;5003302;28;20249;-68
2022/08/05 06:32:51;;;;;;;6.40;4.30;;;26.10;99.90;;;;;;5004673;28;20597;-67
2022/08/05 06:35:17;;;;;;;4.57;4.17;;;26.20;99.90;;;;;;5006567;28;20502;-69
2022/08/05 06:37:43;;;;;;;5.63;3.80;;;26.30;99.90;;;;;;5007346;28;20568;-69
2022/08/05 06:40:09;;;;;;;4.37;3.97;;;26.30;99.90;;;;;;5006876;28;20193;-67
2022/08/05 06:42:36;;;;;;;4.10;3.67;;;26.40;99.90;;;;;;5006898;28;20238;-67
2022/08/05 06:45:02;;;;;;;5.03;4.10;;;26.40;99.90;;;;;;5006709;28;20920;-70
2022/08/05 06:47:28;;;;;;;4.97;4.43;;;26.50;99.90;;;;;;5006443;28;20586;-68
2022/08/05 06:49:53;;;;;;;5.03;3.83;;;26.50;99.90;;;;;;5005338;28;20937;-69
2022/08/05 06:52:19;;;;;;;4.20;3.80;;;26.70;99.90;;;;;;5006934;28;20216;-69
2022/08/05 06:54:45;;;;;;;5.33;4.40;;;26.70;99.90;;;;;;5006868;28;20695;-68
2022/08/05 06:57:13;;;;;;;6.53;4.20;;;26.60;99.90;;;;;;5006458;28;20203;-67
2022/08/05 06:59:39;;;;;;;7.53;3.43;;;26.80;99.90;;;;;;5006867;28;20563;-68
2022/08/05 07:02:05;;;;;;;5.23;3.93;;;26.90;99.60;;;;;;5006387;28;20418;-69
2022/08/05 07:04:30;;;;;;;6.70;4.00;;;26.90;99.30;;;;;;5005918;28;20664;-67
2022/08/05 07:06:56;;;;;;;6.00;4.10;;;26.80;99.30;;;;;;5006587;28;20521;-68
2022/08/05 07:09:21;;;;;;;4.17;3.77;;;26.90;99.20;;;;;;5007943;28;20406;-67
2022/08/05 07:11:47;;;;;;;3.77;3.47;;;26.90;99.10;;;;;;5007840;28;20202;-67
2022/08/05 07:16:59;;;;;;;3.97;3.57;;;26.70;99.40;;;;;;5006159;28;20679;-68
2022/08/05 07:19:25;;;;;;;6.97;4.20;;;26.70;99.20;;;;;;5005763;28;20452;-68
2022/08/05 07:21:51;;;;;;;4.90;3.60;;;26.60;99.60;;;;;;5006156;28;20415;-70
2022/08/05 07:24:17;;;;;;;7.10;3.50;;;26.80;99.20;;;;;;4988282;28;20203;-68
2022/08/05 07:26:44;;;;;;;5.00;4.20;;;26.80;99.40;;;;;;5005821;28;20208;-66
2022/08/05 07:29:09;;;;;;;6.17;3.70;;;26.80;99.20;;;;;;5005870;28;20210;-67
2022/08/05 07:31:36;;;;;;;5.70;4.10;;;27.10;99.00;;;;;;5005899;28;20418;-67
2022/08/05 07:34:02;;;;;;;4.77;3.83;;;27.20;98.80;;;;;;5004995;28;20422;-68
2022/08/05 07:36:28;;;;;;;3.60;3.30;;;27.30;98.70;;;;;;5005626;28;20963;-68
2022/08/05 07:38:54;;;;;;;4.70;3.60;;;27.40;98.40;;;;;;5005794;28;20532;-68
2022/08/05 07:41:22;;;;;;;4.23;3.93;;;27.30;98.30;;;;;;5005896;28;20282;-68
2022/08/05 07:43:48;;;;;;;7.60;4.00;;;27.50;98.00;;;;;;5005200;28;20514;-67
2022/08/05 07:46:13;;;;;;;7.30;3.80;;;27.60;97.70;;;;;;5005273;28;20561;-68
2022/08/05 07:48:39;;;;;;;4.37;3.97;;;27.50;97.40;;;;;;5004277;28;20188;-68
2022/08/05 07:51:05;;;;;;;3.50;3.20;;;27.30;97.40;;;;;;5005017;28;20194;-68
2022/08/05 07:53:30;;;;;;;3.60;3.27;;;27.00;97.40;;;;;;5006065;28;20689;-68
2022/08/05 07:55:56;;;;;;;7.70;3.77;;;27.10;97.30;;;;;;5005087;28;20250;-69
2022/08/05 07:58:22;;;;;;;5.20;3.43;;;27.50;97.20;;;;;;5005575;28;20554;-68
2022/08/05 08:00:48;;;;;;;5.07;3.40;;;27.60;96.90;;;;;;5005205;28;20412;-66
2022/08/05 08:03:15;;;;;;;3.37;3.10;;;27.60;96.90;;;;;;5005561;28;20206;-67
2022/08/05 08:05:44;;;;;;;7.00;3.63;;;27.70;96.10;;;;;;5004933;28;20797;-68
2022/08/05 08:08:10;;;;;;;4.70;3.47;;;27.70;96.00;;;;;;5005397;28;20464;-67
2022/08/05 08:10:36;;;;;;;4.33;3.17;;;27.90;95.90;;;;;;5005391;28;20882;-67
2022/08/05 08:13:02;;;;;;;4.90;2.70;;;28.00;94.90;;;;;;5005550;28;20549;-67
2022/08/05 08:15:28;;;;;;;3.80;3.00;;;27.90;93.60;;;;;;5004912;28;20199;-67
2022/08/05 08:17:53;;;;;;;2.77;2.57;;;27.90;93.80;;;;;;5004995;28;20261;-66
2022/08/05 08:20:24;;;;;;;3.30;2.90;;;28.00;93.00;;;;;;5004553;28;20424;-67
2022/08/05 08:22:55;;;;;;;3.53;2.83;;;28.00;93.10;;;;;;5004772;28;20612;-67
2022/08/05 08:25:21;;;;;;;2.40;2.20;;;28.10;92.20;;;;;;5004811;28;20403;-69
2022/08/05 08:27:47;;;;;;;2.60;2.03;;;28.00;91.90;;;;;;5005194;28;20434;-68
2022/08/05 08:30:13;;;;;;;3.70;2.63;;;28.00;91.90;;;;;;5004815;28;20829;-68
2022/08/05 08:32:39;;;;;;;2.47;2.13;;;28.10;91.90;;;;;;5004830;28;20837;-68
2022/08/05 08:35:06;;;;;;;3.53;2.70;;;28.10;91.60;;;;;;5003699;28;20422;-68
2022/08/05 08:37:31;;;;;;;4.00;2.53;;;28.20;92.00;;;;;;5004477;28;20285;-68
2022/08/05 08:39:57;;;;;;;3.50;2.50;;;28.40;91.30;;;;;;5004733;28;20467;-67
2022/08/05 08:42:23;;;;;;;3.07;2.67;;;28.40;91.20;;;;;;5004415;28;20180;-68
2022/08/05 08:44:51;;;;;;;2.33;2.13;;;28.50;91.20;;;;;;5005150;28;20730;-67
2022/08/05 08:47:19;;;;;;;2.67;2.47;;;28.50;90.80;;;;;;5004190;28;20966;-66
2022/08/05 08:49:47;;;;;;;2.67;2.47;;;28.80;90.50;;;;;;5002912;28;20553;-68
2022/08/05 08:52:18;;;;;;;2.37;2.17;;;29.20;90.60;;;;;;5004285;28;20446;-68
2022/08/05 08:54:46;;;;;;;2.50;2.13;;;29.00;89.30;;;;;;5004371;28;20418;-67
2022/08/05 08:57:12;;;;;;;2.73;2.27;;;28.60;90.00;;;;;;5004328;28;20473;-66
2022/08/05 08:59:38;;;;;;;2.27;2.17;;;28.50;89.50;;;;;;5004324;28;20474;-69
2022/08/05 09:02:06;;;;;;;3.43;2.33;;;28.70;89.80;;;;;;5004030;28;20191;-67
2022/08/05 09:04:38;;;;;;;2.47;2.27;;;28.80;88.40;;;;;;5004084;28;20418;-67
2022/08/05 09:07:05;;;;;;;3.30;2.50;;;29.00;89.80;;;;;;5003513;28;20503;-69
2022/08/05 09:09:32;;;;;;;3.97;2.03;;;29.10;87.70;;;;;;5004408;28;20458;-69
2022/08/05 09:11:57;;;;;;;4.87;2.63;;;28.90;88.00;;;;;;5004255;28;20433;-67
2022/08/05 09:14:23;;;;;;;2.87;2.53;;;28.90;87.60;;;;;;5002572;28;20431;-67
2022/08/05 09:16:49;;;;;;;2.60;2.40;;;29.20;86.90;;;;;;5003957;28;20238;-67
2022/08/05 09:19:15;;;;;;;3.00;2.33;;;29.30;87.40;;;;;;5002656;28;20606;-68
2022/08/05 09:21:41;;;;;;;2.23;2.03;;;29.50;86.50;;;;;;5004115;28;20458;-69
2022/08/05 09:24:08;;;;;;;3.13;2.10;;;29.50;85.00;;;;;;5004478;28;20313;-67
2022/08/05 09:26:35;;;;;;;3.70;2.07;;;29.40;84.10;;;;;;5003839;28;20210;-69
2022/08/05 09:29:05;;;;;;;2.30;2.10;;;29.50;83.10;;;;;;5004168;28;20832;-65
2022/08/05 09:31:31;;;;;;;2.50;2.30;;;29.50;82.30;;;;;;5004136;28;20514;-68
2022/08/05 09:33:58;;;;;;;3.80;2.37;;;29.40;82.70;;;;;;5003114;28;20464;-68
2022/08/05 09:36:39;;;;;;;1.80;1.70;;;29.40;83.10;;;;;;5003911;28;20580;-67
2022/08/05 09:39:07;;;;;;;3.00;1.90;;;29.60;82.10;;;;;;5003564;28;20454;-67
2022/08/05 09:41:33;;;;;;;3.20;2.40;;;29.90;81.30;;;;;;5003692;28;20411;-68
2022/08/05 09:43:58;;;;;;;2.40;2.20;;;30.10;80.20;;;;;;5003638;28;20433;-68
2022/08/05 09:46:29;;;;;;;2.53;2.33;;;30.00;80.90;;;;;;5003794;28;20641;-68
2022/08/05 09:48:57;;;;;;;4.50;2.80;;;30.20;79.90;;;;;;5003047;28;20204;-67
2022/08/05 09:51:34;;;;;;;2.80;2.07;;;30.40;79.40;;;;;;5004246;28;20586;-68
2022/08/05 09:54:00;;;;;;;3.70;2.07;;;30.60;79.80;;;;;;5004364;28;20425;-67
2022/08/05 09:56:28;;;;;;;2.70;2.00;;;30.80;77.30;;;;;;5003417;28;20466;-67
2022/08/05 09:59:05;;;;;;;2.50;2.30;;;30.50;77.00;;;;;;5003603;28;20426;-68
2022/08/05 10:01:32;;;;;;;2.20;2.00;;;30.60;76.50;;;;;;5003706;28;20481;-67
2022/08/05 10:04:12;;;;;;;2.17;1.97;;;30.30;77.70;;;;;;5003518;28;20961;-67
2022/08/05 10:06:40;;;;;;;2.80;2.17;;;30.20;77.70;;;;;;5003619;28;20672;-67
2022/08/05 10:09:20;;;;;;;2.90;1.97;;;30.40;78.30;;;;;;5006749;28;20517;-70
2022/08/05 10:11:46;;;;;;;2.70;2.50;;;30.90;77.40;;;;;;5007396;28;20411;-68
2022/08/05 10:14:26;;;;;;;2.50;2.30;;;30.80;75.80;;;;;;5007423;28;20415;-70
2022/08/05 10:16:55;;;;;;;4.67;2.30;;;30.90;75.40;;;;;;5007134;28;20454;-69
2022/08/05 10:19:22;;;;;;;2.50;1.83;;;30.70;74.20;;;;;;5006586;28;20414;-68
2022/08/05 10:21:48;;;;;;;5.17;2.30;;;30.60;74.20;;;;;;4989938;28;20480;-68
2022/08/05 10:24:18;;;;;;;4.43;2.40;;;30.80;74.10;;;;;;5006940;28;20418;-69
2022/08/05 10:26:45;;;;;;;3.80;1.70;;;31.10;73.30;;;;;;5006763;28;20434;-69
2022/08/05 10:29:11;;;;;;;2.23;2.13;;;31.40;72.70;;;;;;5007141;28;20483;-70
2022/08/05 10:31:40;;;;;;;2.53;2.17;;;31.40;72.50;;;;;;5006937;28;20477;-68
2022/08/05 10:34:09;;;;;;;2.73;1.90;;;31.30;72.20;;;;;;5007005;28;20556;-67
2022/08/05 10:36:36;;;;;;;2.33;1.97;;;31.60;72.50;;;;;;5006652;28;20443;-67
2022/08/05 10:39:11;;;;;;;2.50;2.30;;;31.50;70.30;;;;;;5006279;28;20407;-68
2022/08/05 10:41:45;;;;;;;2.33;2.10;;;31.80;69.60;;;;;;5006429;28;20418;-68
2022/08/05 10:44:14;;;;;;;2.40;2.17;;;32.10;69.30;;;;;;5007129;28;21010;-68
2022/08/05 10:46:50;;;;;;;2.43;2.23;;;32.00;69.40;;;;;;5006524;28;20989;-68
2022/08/05 10:49:16;;;;;;;2.50;2.00;;;31.90;70.30;;;;;;5005784;28;20846;-67
2022/08/05 10:51:55;;;;;;;2.03;1.93;;;32.10;68.80;;;;;;5006686;28;20429;-68
2022/08/05 10:54:21;;;;;;;3.80;3.50;;;32.40;68.50;;;;;;5006967;28;20845;-67
2022/08/05 10:56:49;;;;;;;2.53;1.80;;;32.50;66.40;;;;;;5006777;28;20462;-70
2022/08/05 10:59:25;;;;;;;3.43;2.10;;;32.30;66.90;;;;;;5006342;28;20191;-67
2022/08/05 11:02:07;;;;;;;4.60;2.50;;;32.40;68.20;;;;;;5006401;28;20505;-68
2022/08/05 11:04:42;;;;;;;2.70;2.00;;;33.20;67.30;;;;;;5006123;28;20867;-69
2022/08/05 11:07:14;;;;;;;2.37;2.00;;;33.90;63.00;;;;;;5006970;28;20450;-68
2022/08/05 11:09:47;;;;;;;2.47;2.27;;;34.50;62.00;;;;;;5006675;28;20456;-67
2022/08/05 11:12:25;;;;;;;2.30;2.10;;;34.50;60.20;;;;;;5006200;28;20775;-67
2022/08/05 11:15:09;;;;;;;2.50;2.30;;;34.60;60.00;;;;;;5006394;28;20778;-67
2022/08/05 11:17:37;;;;;;;2.13;1.93;;;34.40;60.20;;;;;;5006141;28;20469;-68
2022/08/05 11:20:08;;;;;;;3.30;2.27;;;34.00;59.60;;;;;;5004333;28;20472;-68
2022/08/05 11:22:46;;;;;;;2.33;1.90;;;33.90;60.00;;;;;;5005786;28;20415;-68
2022/08/05 11:25:29;;;;;;;3.37;1.97;;;34.10;59.90;;;;;;5005964;28;20423;-67
2022/08/05 11:28:15;;;;;;;4.33;2.03;;;34.50;59.30;;;;;;5005829;28;20423;-69
2022/08/05 11:30:56;;;;;;;4.63;2.50;;;35.80;57.90;;;;;;4994907;28;20478;-69
2022/08/05 11:33:31;;;;;;;4.23;2.17;;;35.50;56.70;;;;;;5005685;28;20465;-68
2022/08/05 11:36:02;;;;;;;2.40;2.20;;;36.90;55.90;;;;;;5004966;28;20858;-68
2022/08/05 11:38:43;;;;;;;3.23;2.93;;;37.50;53.00;;;;;;5005177;28;20423;-69
2022/08/05 11:41:30;;;;;;;2.97;2.00;;;38.90;50.90;;;;;;5005503;28;20422;-69
2022/08/05 11:44:09;;;;;;;2.27;2.07;;;38.80;49.40;;;;;;5005615;28;20867;-67
2022/08/05 11:46:51;;;;;;;2.20;2.00;;;38.00;50.10;;;;;;5005460;28;20530;-68
2022/08/05 11:49:19;;;;;;;3.00;1.93;;;37.10;51.40;;;;;;5004628;28;20459;-69
2022/08/05 11:51:52;;;;;;;2.00;1.90;;;38.20;49.70;;;;;;5005004;28;20419;-68
2022/08/05 11:54:28;;;;;;;1.87;1.77;;;37.40;51.00;;;;;;5005485;28;20411;-68
2022/08/05 11:56:55;;;;;;;2.60;2.10;;;37.40;50.60;;;;;;5005347;28;20442;-67
2022/08/05 11:59:24;;;;;;;2.83;2.00;;;36.40;52.20;;;;;;5005349;28;20423;-68
2022/08/05 12:01:59;;;;;;;3.17;1.90;;;36.50;51.50;;;;;;5005541;28;20411;-68
2022/08/05 12:04:28;;;;;;;3.10;1.90;;;37.00;51.90;;;;;;5005285;28;20411;-69
2022/08/05 12:06:54;;;;;;;2.43;2.23;;;38.20;49.60;;;;;;5004910;28;20906;-67
2022/08/05 12:09:24;;;;;;;4.33;2.07;;;39.40;47.40;;;;;;5005086;28;20459;-68
2022/08/05 12:11:50;;;;;;;2.57;1.83;;;41.00;45.10;;;;;;5004438;28;20415;-68
2022/08/05 12:14:16;;;;;;;2.50;2.00;;;39.40;47.20;;;;;;5004906;28;20903;-69
2022/08/05 12:16:43;;;;;;;2.40;1.70;;;38.90;48.00;;;;;;5004902;28;20227;-69
2022/08/05 12:19:10;;;;;;;2.43;2.23;;;37.80;50.00;;;;;;5005088;28;20266;-68
2022/08/05 12:21:41;;;;;;;5.13;2.20;;;36.50;51.50;;;;;;5004662;28;20430;-68
2022/08/05 12:24:18;;;;;;;2.73;2.20;;;35.80;53.30;;;;;;5004556;28;20413;-68
2022/08/05 12:26:46;;;;;;;2.63;2.47;;;36.50;53.00;;;;;;5004561;28;20436;-69
2022/08/05 12:29:17;;;;;;;2.50;2.10;;;36.60;53.10;;;;;;5004883;28;20462;-69
2022/08/05 12:31:48;;;;;;;2.80;2.37;;;35.80;53.30;;;;;;5004590;28;20495;-67
2022/08/05 12:34:15;;;;;;;3.60;2.80;;;35.10;54.80;;;;;;5004174;28;20403;-71
2022/08/05 12:36:42;;;;;;;2.70;2.50;;;35.30;55.00;;;;;;5004268;28;20955;-67
2022/08/05 12:39:08;;;;;;;3.00;2.37;;;35.00;54.90;;;;;;5004633;28;20449;-69
2022/08/05 12:41:35;;;;;;;2.33;2.13;;;34.30;56.90;;;;;;5004508;28;20450;-67
2022/08/05 12:44:08;;;;;;;2.83;2.43;;;34.30;56.50;;;;;;5004981;28;20218;-70
2022/08/05 12:46:34;;;;;;;3.30;2.77;;;34.00;56.90;;;;;;5004600;28;20864;-68
2022/08/05 12:49:09;;;;;;;3.20;2.83;;;33.70;58.00;;;;;;5003708;28;20455;-68
2022/08/05 12:51:51;;;;;;;2.40;2.23;;;33.90;58.00;;;;;;5003854;28;20730;-67
2022/08/05 12:54:19;;;;;;;5.10;2.70;;;33.50;58.10;;;;;;5004546;28;20769;-69
2022/08/05 12:57:05;;;;;;;3.10;2.73;;;32.90;58.90;;;;;;5004008;28;20442;-66